Time;durP1;ratioP1;P1;durP2;ratioP2;P2;SDS_P1;SDS_P2;PMS_P1;PMS_P2;Temp;Humidity;BMP_temperature;BMP_pressure;BME280_temperature;BME280_humidity;BME280_pressure;Samples;Min_cycle;Max_cycle;Signal;HPM_P1;HPM_P2
2023/11/16 00:00:48;;;;;;;14.15;2.42;;;;;;;;;;5054320;28;20111;-85
2023/11/16 00:03:13;;;;;;;9.85;2.35;;;;;;;;;;5071497;28;20032;-85
2023/11/16 00:05:42;;;;;;;10.30;2.22;;;;;;;;;;5052598;28;20025;-85
2023/11/16 00:08:07;;;;;;;8.75;2.67;;;;;;;;;;5058534;28;20051;-85
2023/11/16 00:10:35;;;;;;;10.60;2.17;;;;;;;;;;5055745;28;20017;-85
2023/11/16 00:13:07;;;;;;;9.48;1.58;;;;;;;;;;5069980;28;20266;-85
2023/11/16 00:15:35;;;;;;;13.03;2.23;;;;;;;;;;5055952;28;20023;-86
2023/11/16 00:18:03;;;;;;;11.40;2.63;;;;;;;;;;5035720;28;20349;-86
2023/11/16 00:20:29;;;;;;;9.35;1.92;;;;;;;;;;5049251;28;20440;-85
2023/11/16 00:22:54;;;;;;;14.00;2.15;;;;;;;;;;5049132;28;20112;-85
2023/11/16 00:25:23;;;;;;;8.48;2.22;;;;;;;;;;5058737;28;20115;-85
2023/11/16 00:27:50;;;;;;;16.10;2.53;;;;;;;;;;5051303;28;20044;-85
2023/11/16 00:30:15;;;;;;;8.82;2.22;;;;;;;;;;5069996;28;20082;-85
2023/11/16 00:32:40;;;;;;;14.77;3.00;;;;;;;;;;5070363;28;20422;-85
2023/11/16 00:35:06;;;;;;;14.63;2.53;;;;;;;;;;5070899;28;20047;-85
2023/11/16 00:37:32;;;;;;;8.85;1.95;;;;;;;;;;5055008;28;20384;-85
2023/11/16 00:39:59;;;;;;;5.72;1.92;;;;;;;;;;5053019;28;20100;-85
2023/11/16 00:42:24;;;;;;;13.15;2.58;;;;;;;;;;5053792;28;20479;-85
2023/11/16 00:44:49;;;;;;;6.03;1.88;;;;;;;;;;5052453;28;20025;-85
2023/11/16 00:47:21;;;;;;;6.57;2.15;;;;;;;;;;5067111;28;20044;-85
2023/11/16 00:49:49;;;;;;;12.75;3.28;;;;;;;;;;5053378;28;20045;-85
2023/11/16 00:52:19;;;;;;;12.75;2.33;;;;;;;;;;5056485;28;20424;-85
2023/11/16 00:54:48;;;;;;;13.00;2.75;;;;;;;;;;5071452;28;20028;-85
2023/11/16 00:57:13;;;;;;;12.90;2.15;;;;;;;;;;5059053;28;20029;-85
2023/11/16 00:59:39;;;;;;;10.45;2.17;;;;;;;;;;5073175;28;20021;-85
2023/11/16 01:02:08;;;;;;;11.45;2.30;;;;;;;;;;5058703;28;20005;-85
2023/11/16 01:04:34;;;;;;;14.15;2.42;;;;;;;;;;5070157;28;20025;-85
2023/11/16 01:07:00;;;;;;;9.98;2.58;;;;;;;;;;5059458;28;20483;-86
2023/11/16 01:09:25;;;;;;;11.38;1.98;;;;;;;;;;5071837;28;20012;-85
2023/11/16 01:11:50;;;;;;;8.82;2.13;;;;;;;;;;5061582;28;20041;-85
2023/11/16 01:14:16;;;;;;;18.88;2.58;;;;;;;;;;5051901;28;20048;-85
2023/11/16 01:16:45;;;;;;;9.85;2.10;;;;;;;;;;5053053;28;20021;-85
2023/11/16 01:19:15;;;;;;;9.70;2.45;;;;;;;;;;5068851;28;20415;-85
2023/11/16 01:21:41;;;;;;;6.15;1.92;;;;;;;;;;5067028;28;20060;-85
2023/11/16 01:24:08;;;;;;;9.35;2.58;;;;;;;;;;5053405;28;20491;-85
2023/11/16 01:26:35;;;;;;;13.55;2.83;;;;;;;;;;5061398;28;20419;-85
2023/11/16 01:29:05;;;;;;;17.48;2.00;;;;;;;;;;5052793;28;20029;-85
2023/11/16 01:31:30;;;;;;;15.60;2.08;;;;;;;;;;5051815;28;20017;-85
2023/11/16 01:33:55;;;;;;;5.57;1.77;;;;;;;;;;5052682;28;20072;-85
2023/11/16 01:36:24;;;;;;;12.55;2.60;;;;;;;;;;5064524;28;20017;-86
2023/11/16 01:38:50;;;;;;;8.55;1.92;;;;;;;;;;5059260;28;20156;-85
2023/11/16 01:41:16;;;;;;;12.77;2.40;;;;;;;;;;5047730;28;20112;-85
2023/11/16 01:43:42;;;;;;;9.68;1.90;;;;;;;;;;5068953;28;20016;-85
2023/11/16 01:46:07;;;;;;;13.32;2.53;;;;;;;;;;5051777;28;20074;-85
2023/11/16 01:48:36;;;;;;;8.57;2.33;;;;;;;;;;5064225;28;20026;-85
2023/11/16 01:51:12;;;;;;;12.30;2.30;;;;;;;;;;5052372;28;20531;-85
2023/11/16 01:53:40;;;;;;;10.63;2.10;;;;;;;;;;5064157;28;20024;-85
2023/11/16 01:56:07;;;;;;;10.82;2.00;;;;;;;;;;5055334;28;20027;-85
2023/11/16 01:58:35;;;;;;;13.23;1.70;;;;;;;;;;5092297;28;20044;-85
2023/11/16 02:01:01;;;;;;;11.52;2.50;;;;;;;;;;5058317;28;20027;-85
2023/11/16 02:03:26;;;;;;;6.97;2.40;;;;;;;;;;5062292;28;20134;-85
2023/11/16 02:05:52;;;;;;;9.05;2.20;;;;;;;;;;5051322;28;20024;-85
2023/11/16 02:08:20;;;;;;;11.45;2.38;;;;;;;;;;5052433;28;20066;-85
2023/11/16 02:10:45;;;;;;;9.07;2.08;;;;;;;;;;5051602;28;20025;-85
2023/11/16 02:13:17;;;;;;;8.82;1.90;;;;;;;;;;5051624;28;20020;-85
2023/11/16 02:15:43;;;;;;;;;;;;;;;;;;5052362;28;20045;-85
2023/11/16 02:18:08;;;;;;;10.27;2.10;;;;;;;;;;5050428;28;20002;-85
2023/11/16 02:20:34;;;;;;;9.73;2.00;;;;;;;;;;5068344;28;20009;-86
2023/11/16 02:23:02;;;;;;;14.35;2.30;;;;;;;;;;5062766;28;20357;-85
2023/11/16 02:25:40;;;;;;;9.00;2.00;;;;;;;;;;5050884;28;20017;-85
2023/11/16 02:28:06;;;;;;;17.90;1.85;;;;;;;;;;5041193;28;20128;-86
2023/11/16 02:30:31;;;;;;;5.07;1.65;;;;;;;;;;5050969;28;20105;-85
2023/11/16 02:32:56;;;;;;;10.15;2.22;;;;;;;;;;5051579;28;20043;-85
2023/11/16 02:35:22;;;;;;;9.95;2.22;;;;;;;;;;5048203;28;20031;-86
2023/11/16 02:37:47;;;;;;;4.72;1.55;;;;;;;;;;5050879;28;20116;-85
2023/11/16 02:40:16;;;;;;;13.65;2.45;;;;;;;;;;5051046;28;20024;-85
2023/11/16 02:42:41;;;;;;;8.68;1.83;;;;;;;;;;5051124;28;20480;-85
2023/11/16 02:45:10;;;;;;;16.67;2.35;;;;;;;;;;5050502;28;20033;-86
2023/11/16 02:47:38;;;;;;;6.97;1.70;;;;;;;;;;5050597;28;20045;-85
2023/11/16 02:50:03;;;;;;;6.90;2.00;;;;;;;;;;5037832;28;20024;-85
2023/11/16 02:52:29;;;;;;;10.15;1.60;;;;;;;;;;5052541;28;20472;-85
2023/11/16 02:54:54;;;;;;;6.28;1.92;;;;;;;;;;5050359;28;20082;-85
2023/11/16 02:57:20;;;;;;;15.05;2.53;;;;;;;;;;5050440;28;20021;-85
2023/11/16 02:59:46;;;;;;;9.30;1.90;;;;;;;;;;5051421;28;20021;-85
2023/11/16 03:02:14;;;;;;;15.25;2.22;;;;;;;;;;5050103;28;20125;-85
2023/11/16 03:04:40;;;;;;;7.72;2.05;;;;;;;;;;5050313;28;20036;-85
2023/11/16 03:07:05;;;;;;;12.43;2.30;;;;;;;;;;5051965;28;20021;-85
2023/11/16 03:09:30;;;;;;;9.70;1.88;;;;;;;;;;5050365;28;20108;-85
2023/11/16 03:11:56;;;;;;;8.30;2.42;;;;;;;;;;5051602;28;20510;-86
2023/11/16 03:14:22;;;;;;;15.68;1.75;;;;;;;;;;5050662;28;20052;-85
2023/11/16 03:16:51;;;;;;;12.27;2.05;;;;;;;;;;5050352;28;20119;-85
2023/11/16 03:19:19;;;;;;;11.48;2.33;;;;;;;;;;5049752;28;20620;-86
2023/11/16 03:21:44;;;;;;;11.73;2.20;;;;;;;;;;5050384;28;20120;-85
2023/11/16 03:24:10;;;;;;;7.20;1.98;;;;;;;;;;5050223;28;20059;-85
2023/11/16 03:26:35;;;;;;;9.10;2.10;;;;;;;;;;5042728;28;20590;-85
2023/11/16 03:29:00;;;;;;;10.05;2.60;;;;;;;;;;5049652;28;20061;-85
2023/11/16 03:31:26;;;;;;;6.25;1.50;;;;;;;;;;5049695;28;20029;-85
2023/11/16 03:33:51;;;;;;;5.82;1.70;;;;;;;;;;5046847;28;20014;-86
2023/11/16 03:36:16;;;;;;;5.82;1.65;;;;;;;;;;5051517;28;20212;-86
2023/11/16 03:38:41;;;;;;;7.22;1.80;;;;;;;;;;5061436;28;20036;-85
2023/11/16 03:41:07;;;;;;;6.28;1.65;;;;;;;;;;5051604;28;20075;-85
2023/11/16 03:43:32;;;;;;;7.85;1.63;;;;;;;;;;5056533;28;20025;-85
2023/11/16 03:45:57;;;;;;;9.10;1.98;;;;;;;;;;5058612;28;20021;-86
2023/11/16 03:48:23;;;;;;;7.60;1.80;;;;;;;;;;5064277;28;20051;-85
2023/11/16 03:50:52;;;;;;;8.60;2.17;;;;;;;;;;5059317;28;20020;-86
2023/11/16 03:53:17;;;;;;;5.72;1.65;;;;;;;;;;5069851;28;20024;-85
2023/11/16 03:55:42;;;;;;;6.18;1.38;;;;;;;;;;5060749;28;20024;-86
2023/11/16 03:58:07;;;;;;;5.93;2.00;;;;;;;;;;5049614;28;20029;-85
2023/11/16 04:00:33;;;;;;;7.78;1.63;;;;;;;;;;5050056;28;20376;-85
2023/11/16 04:03:03;;;;;;;8.02;1.70;;;;;;;;;;5062455;28;20046;-85
2023/11/16 04:05:30;;;;;;;8.23;1.45;;;;;;;;;;5050748;28;20448;-85
2023/11/16 04:07:56;;;;;;;11.90;1.67;;;;;;;;;;5054350;28;20044;-85
2023/11/16 04:10:21;;;;;;;3.00;1.30;;;;;;;;;;5053573;28;20396;-86
2023/11/16 04:12:46;;;;;;;12.82;2.33;;;;;;;;;;5054216;28;20035;-85
2023/11/16 04:15:13;;;;;;;10.48;2.13;;;;;;;;;;5053790;28;20060;-85
2023/11/16 04:17:38;;;;;;;5.60;1.73;;;;;;;;;;5053869;28;20457;-85
2023/11/16 04:20:07;;;;;;;7.70;2.05;;;;;;;;;;5051407;28;20090;-86
2023/11/16 04:22:36;;;;;;;7.10;2.05;;;;;;;;;;5034259;28;20469;-85
2023/11/16 04:25:04;;;;;;;6.00;2.15;;;;;;;;;;5048055;28;20103;-86
2023/11/16 04:27:30;;;;;;;7.28;2.00;;;;;;;;;;5055162;28;20480;-86
2023/11/16 04:29:55;;;;;;;8.13;1.60;;;;;;;;;;5053879;28;20035;-85
2023/11/16 04:32:23;;;;;;;6.65;1.75;;;;;;;;;;5055082;28;20029;-86
2023/11/16 04:34:50;;;;;;;7.25;1.42;;;;;;;;;;5052587;28;20013;-85
2023/11/16 04:37:16;;;;;;;10.95;1.63;;;;;;;;;;5053734;28;20032;-85
2023/11/16 04:39:41;;;;;;;5.90;1.58;;;;;;;;;;5054663;28;20017;-85
2023/11/16 04:42:08;;;;;;;11.23;1.60;;;;;;;;;;5055062;28;20029;-85
2023/11/16 04:44:34;;;;;;;6.57;1.95;;;;;;;;;;5054602;28;20025;-85
2023/11/16 04:47:00;;;;;;;8.38;1.42;;;;;;;;;;5053241;28;20135;-85
2023/11/16 04:49:27;;;;;;;5.95;1.40;;;;;;;;;;5039705;28;20052;-86
2023/11/16 04:52:00;;;;;;;6.07;1.48;;;;;;;;;;5042423;28;20549;-85
2023/11/16 04:54:26;;;;;;;9.85;1.73;;;;;;;;;;5051666;28;20047;-85
2023/11/16 04:56:51;;;;;;;5.38;1.63;;;;;;;;;;5054649;28;20120;-86
2023/11/16 04:59:16;;;;;;;12.40;1.65;;;;;;;;;;5052759;28;20461;-85
2023/11/16 05:01:42;;;;;;;6.30;1.53;;;;;;;;;;5052933;28;20021;-86
2023/11/16 05:04:07;;;;;;;8.30;1.83;;;;;;;;;;5051976;28;20043;-85
2023/11/16 05:06:39;;;;;;;4.43;1.33;;;;;;;;;;5054402;28;20028;-86
2023/11/16 05:09:04;;;;;;;7.38;1.70;;;;;;;;;;5052895;28;20025;-86
2023/11/16 05:11:30;;;;;;;7.82;1.80;;;;;;;;;;5053026;28;20033;-86
2023/11/16 05:13:55;;;;;;;4.55;1.35;;;;;;;;;;5052879;28;20113;-86
2023/11/16 05:16:26;;;;;;;8.90;1.50;;;;;;;;;;5052405;28;20131;-85
2023/11/16 05:18:52;;;;;;;3.95;1.60;;;;;;;;;;5054122;28;20032;-86
2023/11/16 05:21:17;;;;;;;3.88;1.42;;;;;;;;;;5053354;28;20029;-85
2023/11/16 05:23:42;;;;;;;5.10;1.35;;;;;;;;;;5049791;28;20024;-85
2023/11/16 05:26:08;;;;;;;9.75;2.08;;;;;;;;;;5042159;28;20013;-86
2023/11/16 05:28:33;;;;;;;5.47;1.92;;;;;;;;;;5053963;28;20098;-86
2023/11/16 05:30:58;;;;;;;3.88;1.40;;;;;;;;;;5052292;28;20028;-86
2023/11/16 05:33:24;;;;;;;10.45;2.05;;;;;;;;;;5053219;28;20544;-86
2023/11/16 05:35:51;;;;;;;5.40;1.65;;;;;;;;;;5051547;28;20008;-86
2023/11/16 05:38:17;;;;;;;11.15;2.08;;;;;;;;;;5052653;28;20494;-86
2023/11/16 05:40:43;;;;;;;8.35;1.80;;;;;;;;;;5052415;28;20295;-85
2023/11/16 05:43:09;;;;;;;5.63;1.58;;;;;;;;;;5052678;28;20021;-86
2023/11/16 05:45:39;;;;;;;14.25;2.10;;;;;;;;;;5049690;28;20135;-86
2023/11/16 05:48:07;;;;;;;11.88;1.80;;;;;;;;;;5051970;28;20028;-86
2023/11/16 05:50:35;;;;;;;7.90;1.70;;;;;;;;;;5051802;28;20112;-85
2023/11/16 05:53:00;;;;;;;6.68;1.70;;;;;;;;;;5052401;28;20480;-86
2023/11/16 05:55:26;;;;;;;8.98;1.58;;;;;;;;;;5051967;28;20021;-86
2023/11/16 05:57:51;;;;;;;9.20;2.30;;;;;;;;;;5053568;28;20009;-86
2023/11/16 06:00:17;;;;;;;6.43;1.55;;;;;;;;;;5052131;28;20098;-86
2023/11/16 06:02:42;;;;;;;6.32;1.95;;;;;;;;;;5051767;28;20075;-85
2023/11/16 06:05:08;;;;;;;5.38;1.45;;;;;;;;;;5051242;28;20504;-86
2023/11/16 06:07:34;;;;;;;7.07;1.73;;;;;;;;;;5051125;28;20095;-86
2023/11/16 06:10:00;;;;;;;7.60;1.33;;;;;;;;;;5051843;28;20064;-86
2023/11/16 06:12:28;;;;;;;6.10;2.05;;;;;;;;;;5052046;28;20048;-86
2023/11/16 06:14:56;;;;;;;8.10;1.80;;;;;;;;;;5051374;28;20024;-86
2023/11/16 06:17:21;;;;;;;6.18;1.20;;;;;;;;;;5050634;28;20108;-85
2023/11/16 06:19:47;;;;;;;9.45;1.67;;;;;;;;;;5051855;28;20100;-86
2023/11/16 06:22:12;;;;;;;6.47;1.80;;;;;;;;;;5051661;28;20017;-86
2023/11/16 06:24:38;;;;;;;8.93;1.65;;;;;;;;;;5051500;28;20120;-86
2023/11/16 06:27:04;;;;;;;8.82;1.40;;;;;;;;;;5051616;28;20029;-86
2023/11/16 06:29:30;;;;;;;9.52;1.88;;;;;;;;;;5048010;28;21410;-85
2023/11/16 06:31:56;;;;;;;8.00;1.48;;;;;;;;;;5047645;28;20024;-86
2023/11/16 06:34:21;;;;;;;4.93;1.40;;;;;;;;;;5052767;28;20546;-84
2023/11/16 06:36:47;;;;;;;10.50;1.92;;;;;;;;;;5051312;28;20029;-86
2023/11/16 06:39:13;;;;;;;9.85;1.77;;;;;;;;;;5051504;28;20017;-86
2023/11/16 06:41:38;;;;;;;10.30;2.10;;;;;;;;;;5085122;28;20348;-86
2023/11/16 06:44:05;;;;;;;5.25;1.35;;;;;;;;;;5053996;28;20040;-87
2023/11/16 06:46:33;;;;;;;8.88;2.30;;;;;;;;;;5052506;28;20087;-86
2023/11/16 06:48:59;;;;;;;8.10;1.27;;;;;;;;;;5049120;28;20465;-86
2023/11/16 06:51:25;;;;;;;6.65;1.25;;;;;;;;;;5052202;28;20100;-86
2023/11/16 06:53:50;;;;;;;8.40;1.73;;;;;;;;;;5039482;28;20036;-86
2023/11/16 06:56:15;;;;;;;7.65;1.92;;;;;;;;;;5051650;28;20461;-86
2023/11/16 06:58:41;;;;;;;9.18;2.05;;;;;;;;;;5051437;28;20067;-84
2023/11/16 07:01:07;;;;;;;13.70;2.85;;;;;;;;;;5051867;28;20495;-84
2023/11/16 07:03:32;;;;;;;10.68;2.85;;;;;;;;;;5051307;28;20029;-84
2023/11/16 07:05:57;;;;;;;10.65;2.35;;;;;;;;;;5050935;28;20081;-84
2023/11/16 07:08:23;;;;;;;9.10;2.17;;;;;;;;;;5052685;28;20850;-84
2023/11/16 07:10:48;;;;;;;7.40;1.67;;;;;;;;;;5084415;28;20082;-84
2023/11/16 07:13:15;;;;;;;7.43;2.15;;;;;;;;;;5084898;28;20016;-84
2023/11/16 07:15:48;;;;;;;11.98;2.28;;;;;;;;;;5043850;28;20353;-85
2023/11/16 07:18:13;;;;;;;11.18;2.15;;;;;;;;;;5048816;28;20017;-84
2023/11/16 07:20:40;;;;;;;6.03;1.58;;;;;;;;;;5050438;28;20025;-84
2023/11/16 07:23:06;;;;;;;8.93;1.55;;;;;;;;;;5051212;28;20021;-84
2023/11/16 07:25:32;;;;;;;8.23;1.92;;;;;;;;;;5050321;28;20017;-84
2023/11/16 07:27:58;;;;;;;6.20;1.60;;;;;;;;;;5049406;28;20120;-84
2023/11/16 07:30:24;;;;;;;5.78;1.52;;;;;;;;;;5050613;28;20147;-84
2023/11/16 07:32:50;;;;;;;4.18;1.50;;;;;;;;;;5049801;28;20470;-84
2023/11/16 07:35:15;;;;;;;8.90;1.92;;;;;;;;;;5084072;28;20029;-84
2023/11/16 07:37:44;;;;;;;4.45;1.48;;;;;;;;;;5050139;28;20032;-84
2023/11/16 07:40:13;;;;;;;9.43;1.58;;;;;;;;;;5050407;28;20021;-84
2023/11/16 07:42:39;;;;;;;4.50;1.45;;;;;;;;;;5051465;28;20021;-84
2023/11/16 07:45:05;;;;;;;7.93;1.95;;;;;;;;;;5050493;28;20028;-84
2023/11/16 07:47:31;;;;;;;5.60;1.63;;;;;;;;;;5052597;28;20021;-85
2023/11/16 07:49:58;;;;;;;4.88;1.52;;;;;;;;;;5050506;28;20035;-83
2023/11/16 07:52:23;;;;;;;8.27;1.45;;;;;;;;;;5050687;28;20079;-84
2023/11/16 07:54:49;;;;;;;9.07;1.60;;;;;;;;;;5050625;28;20020;-84
2023/11/16 07:57:22;;;;;;;13.45;2.20;;;;;;;;;;5049954;28;20021;-84
2023/11/16 07:59:47;;;;;;;9.57;2.10;;;;;;;;;;5043519;28;20024;-86
2023/11/16 08:02:16;;;;;;;9.57;2.25;;;;;;;;;;5043339;28;20112;-86
2023/11/16 08:04:43;;;;;;;12.43;1.92;;;;;;;;;;5051260;28;20043;-85
2023/11/16 08:07:10;;;;;;;12.35;2.53;;;;;;;;;;5050663;28;20029;-86
2023/11/16 08:09:36;;;;;;;7.25;1.88;;;;;;;;;;5050738;28;20021;-86
2023/11/16 08:12:02;;;;;;;12.48;2.45;;;;;;;;;;5051149;28;20088;-86
2023/11/16 08:14:31;;;;;;;6.10;2.00;;;;;;;;;;5050850;28;20071;-86
2023/11/16 08:16:58;;;;;;;11.00;2.00;;;;;;;;;;5052182;28;20017;-86
2023/11/16 08:19:25;;;;;;;8.88;2.17;;;;;;;;;;5050330;28;20433;-86
2023/11/16 08:21:54;;;;;;;7.97;2.15;;;;;;;;;;5070181;28;20365;-86
2023/11/16 08:24:20;;;;;;;9.15;2.10;;;;;;;;;;5087707;28;20020;-87
2023/11/16 08:26:46;;;;;;;10.05;2.17;;;;;;;;;;5084525;28;20028;-87
2023/11/16 08:29:14;;;;;;;5.97;2.28;;;;;;;;;;5050300;28;20024;-88
2023/11/16 08:31:40;;;;;;;9.80;3.58;;;;;;;;;;5050660;28;20025;-88
2023/11/16 08:34:08;;;;;;;13.50;4.05;;;;;;;;;;5048838;28;20534;-83
2023/11/16 08:36:33;;;;;;;11.45;4.25;;;;;;;;;;5050119;28;20021;-85
2023/11/16 08:38:59;;;;;;;14.75;4.43;;;;;;;;;;5051544;28;20015;-85
2023/11/16 08:41:25;;;;;;;10.55;3.67;;;;;;;;;;5051904;28;20013;-86
2023/11/16 08:43:51;;;;;;;11.05;3.35;;;;;;;;;;5050957;28;20688;-86
2023/11/16 08:46:25;;;;;;;7.95;2.85;;;;;;;;;;5051695;28;20025;-86
2023/11/16 08:48:50;;;;;;;10.98;3.10;;;;;;;;;;5050540;28;20029;-86
2023/11/16 08:51:16;;;;;;;14.07;2.70;;;;;;;;;;5049646;28;20730;-83
2023/11/16 08:53:43;;;;;;;8.25;2.35;;;;;;;;;;5053541;28;20021;-83
2023/11/16 08:56:11;;;;;;;9.35;2.42;;;;;;;;;;5053544;28;20009;-83
2023/11/16 08:58:39;;;;;;;9.80;2.05;;;;;;;;;;5055151;28;20109;-82
2023/11/16 09:01:07;;;;;;;5.20;1.88;;;;;;;;;;5053526;28;20108;-83
2023/11/16 09:03:37;;;;;;;8.68;2.47;;;;;;;;;;5053100;28;20472;-83
2023/11/16 09:06:05;;;;;;;8.65;2.80;;;;;;;;;;5053263;28;20365;-83
2023/11/16 09:08:33;;;;;;;12.18;3.20;;;;;;;;;;5053955;28;20120;-83
2023/11/16 09:10:58;;;;;;;6.28;2.22;;;;;;;;;;5053426;28;20467;-83
2023/11/16 09:13:24;;;;;;;8.38;2.17;;;;;;;;;;5053443;28;20013;-83
2023/11/16 09:15:51;;;;;;;8.02;2.78;;;;;;;;;;5053391;28;20017;-83
2023/11/16 09:18:16;;;;;;;7.35;2.22;;;;;;;;;;5054585;28;20029;-83
2023/11/16 09:20:45;;;;;;;9.48;2.33;;;;;;;;;;5052534;28;20070;-82
2023/11/16 09:23:11;;;;;;;7.32;2.67;;;;;;;;;;5052628;28;20123;-83
2023/11/16 09:25:38;;;;;;;6.05;2.33;;;;;;;;;;5054590;28;20032;-82
2023/11/16 09:28:06;;;;;;;7.13;2.50;;;;;;;;;;5054079;28;20028;-83
2023/11/16 09:30:32;;;;;;;12.48;2.50;;;;;;;;;;5086409;28;20486;-83
2023/11/16 09:33:02;;;;;;;5.28;1.77;;;;;;;;;;5054029;28;20112;-82
2023/11/16 09:35:28;;;;;;;9.35;2.40;;;;;;;;;;5054188;28;20322;-83
2023/11/16 09:37:54;;;;;;;9.93;2.25;;;;;;;;;;5052528;28;20162;-83
2023/11/16 09:40:21;;;;;;;13.27;2.50;;;;;;;;;;5053098;28;20100;-83
2023/11/16 09:42:57;;;;;;;9.00;2.70;;;;;;;;;;5052901;28;20310;-83
2023/11/16 09:45:23;;;;;;;5.57;1.67;;;;;;;;;;5052807;28;20047;-83
2023/11/16 09:47:53;;;;;;;6.00;2.13;;;;;;;;;;5051203;28;20413;-84
2023/11/16 09:50:20;;;;;;;4.07;1.75;;;;;;;;;;5052631;28;20056;-89
2023/11/16 09:52:51;;;;;;;9.20;1.95;;;;;;;;;;5053803;28;20092;-93
2023/11/16 09:55:19;;;;;;;13.90;2.07;;;;;;;;;;5053827;28;20017;-90
2023/11/16 09:57:46;;;;;;;13.77;2.15;;;;;;;;;;5052449;28;20304;-85
2023/11/16 10:00:15;;;;;;;6.20;1.77;;;;;;;;;;5052827;28;20039;-86
2023/11/16 10:02:45;;;;;;;9.68;2.25;;;;;;;;;;5051354;28;20356;-84
2023/11/16 10:05:40;;;;;;;8.98;2.38;;;;;;;;;;5051742;28;20139;-85
2023/11/16 10:08:08;;;;;;;7.32;2.65;;;;;;;;;;5051370;28;20485;-86
2023/11/16 10:10:37;;;;;;;6.85;2.33;;;;;;;;;;5053661;28;20020;-85
2023/11/16 10:13:08;;;;;;;9.00;3.65;;;;;;;;;;5053528;28;20028;-85
2023/11/16 10:15:35;;;;;;;17.30;5.95;;;;;;;;;;5053849;28;20021;-85
2023/11/16 10:18:09;;;;;;;15.48;4.38;;;;;;;;;;5049178;28;20500;-86
2023/11/16 10:20:37;;;;;;;11.40;3.42;;;;;;;;;;5086015;28;20031;-86
2023/11/16 10:23:03;;;;;;;15.77;3.50;;;;;;;;;;5052570;28;20020;-85
2023/11/16 10:25:28;;;;;;;9.93;3.38;;;;;;;;;;5053274;28;20029;-85
2023/11/16 10:27:53;;;;;;;10.20;2.75;;;;;;;;;;5051720;28;20028;-85
2023/11/16 10:30:21;;;;;;;5.95;2.30;;;;;;;;;;5052406;28;20063;-86
2023/11/16 10:32:47;;;;;;;12.77;2.58;;;;;;;;;;5053353;28;20032;-87
2023/11/16 10:35:13;;;;;;;12.05;2.67;;;;;;;;;;5085218;28;20021;-86
2023/11/16 10:37:40;;;;;;;5.43;1.63;;;;;;;;;;5052355;28;20332;-87
2023/11/16 10:40:10;;;;;;;9.13;2.65;;;;;;;;;;5053908;28;20105;-88
2023/11/16 10:42:36;;;;;;;9.57;1.95;;;;;;;;;;5050614;28;20414;-87
2023/11/16 10:45:03;;;;;;;7.45;2.10;;;;;;;;;;5051938;28;20032;-87
2023/11/16 10:47:32;;;;;;;10.73;2.72;;;;;;;;;;5050181;28;20144;-87
2023/11/16 10:49:59;;;;;;;8.18;2.40;;;;;;;;;;5040824;28;20031;-87
2023/11/16 10:52:26;;;;;;;5.65;2.13;;;;;;;;;;5051621;28;20025;-86
2023/11/16 10:54:53;;;;;;;9.15;2.25;;;;;;;;;;5053318;28;20027;-86
2023/11/16 10:57:19;;;;;;;13.70;3.38;;;;;;;;;;5052288;28;20311;-87
2023/11/16 10:59:47;;;;;;;11.38;2.55;;;;;;;;;;5051801;28;20088;-86
2023/11/16 11:02:16;;;;;;;6.00;2.33;;;;;;;;;;5051935;28;20025;-87
2023/11/16 11:04:41;;;;;;;8.38;2.55;;;;;;;;;;5051567;28;20101;-87
2023/11/16 11:07:13;;;;;;;5.97;2.40;;;;;;;;;;5052223;28;20029;-87
2023/11/16 11:09:42;;;;;;;15.35;2.92;;;;;;;;;;5053356;28;20142;-87
2023/11/16 11:12:15;;;;;;;12.68;3.17;;;;;;;;;;5045859;28;20031;-87
2023/11/16 11:14:51;;;;;;;15.23;4.90;;;;;;;;;;5045221;28;20364;-87
2023/11/16 11:17:17;;;;;;;12.80;4.18;;;;;;;;;;5038741;28;20155;-86
2023/11/16 11:19:53;;;;;;;9.82;3.00;;;;;;;;;;5051862;28;20057;-87
2023/11/16 11:22:18;;;;;;;6.88;3.08;;;;;;;;;;5041376;28;20099;-86
2023/11/16 11:24:45;;;;;;;12.57;3.60;;;;;;;;;;5050982;28;20436;-87
2023/11/16 11:27:10;;;;;;;9.00;2.97;;;;;;;;;;5043544;28;20399;-87
2023/11/16 11:29:36;;;;;;;9.02;2.97;;;;;;;;;;5052987;28;20028;-86
2023/11/16 11:32:17;;;;;;;8.35;2.60;;;;;;;;;;5051448;28;20029;-87
2023/11/16 11:34:43;;;;;;;10.32;2.85;;;;;;;;;;5051362;28;20476;-87
2023/11/16 11:37:10;;;;;;;9.13;2.55;;;;;;;;;;5051753;28;20032;-87
2023/11/16 11:39:38;;;;;;;5.68;2.45;;;;;;;;;;5051655;28;20016;-87
2023/11/16 11:42:04;;;;;;;6.35;3.08;;;;;;;;;;5051560;28;20119;-87
2023/11/16 11:44:30;;;;;;;9.70;2.67;;;;;;;;;;5052661;28;20059;-87
2023/11/16 11:46:58;;;;;;;5.82;2.35;;;;;;;;;;5051652;28;20028;-87
2023/11/16 11:49:24;;;;;;;6.32;2.13;;;;;;;;;;5050757;28;20376;-87
2023/11/16 11:51:50;;;;;;;4.63;2.33;;;;;;;;;;5085112;28;20103;-87
2023/11/16 11:54:16;;;;;;;10.13;2.83;;;;;;;;;;5052827;28;20871;-87
2023/11/16 11:56:45;;;;;;;9.88;2.50;;;;;;;;;;5051367;28;20013;-87
2023/11/16 11:59:11;;;;;;;10.27;3.45;;;;;;;;;;5050868;28;20017;-86
2023/11/16 12:01:37;;;;;;;11.35;3.90;;;;;;;;;;5049785;28;20649;-86
2023/11/16 12:04:04;;;;;;;21.23;4.40;;;;;;;;;;5050610;28;20033;-86
2023/11/16 12:06:29;;;;;;;13.20;4.18;;;;;;;;;;5044817;28;20108;-86
2023/11/16 12:08:55;;;;;;;10.70;3.83;;;;;;;;;;5044213;28;20045;-86
2023/11/16 12:11:22;;;;;;;12.73;4.13;;;;;;;;;;5050535;28;20094;-86
2023/11/16 12:13:51;;;;;;;10.85;3.78;;;;;;;;;;5050956;28;20020;-86
2023/11/16 12:16:16;;;;;;;11.30;4.15;;;;;;;;;;5050925;28;20033;-86
2023/11/16 12:18:45;;;;;;;9.40;3.80;;;;;;;;;;5050105;28;20047;-86
2023/11/16 12:21:10;;;;;;;9.60;3.53;;;;;;;;;;5049669;28;20720;-86
2023/11/16 12:23:36;;;;;;;10.98;3.42;;;;;;;;;;5050391;28;20120;-86
2023/11/16 12:26:06;;;;;;;11.82;3.75;;;;;;;;;;5049171;28;20079;-85
2023/11/16 12:28:35;;;;;;;17.88;4.75;;;;;;;;;;5053430;28;20376;-86
2023/11/16 12:31:02;;;;;;;16.52;4.90;;;;;;;;;;5053955;28;22013;-85
2023/11/16 12:33:28;;;;;;;16.00;4.78;;;;;;;;;;5053890;28;20458;-86
2023/11/16 12:35:54;;;;;;;19.67;4.55;;;;;;;;;;5073074;28;20067;-86
2023/11/16 12:38:21;;;;;;;15.80;4.90;;;;;;;;;;5053508;28;20032;-86
2023/11/16 12:40:47;;;;;;;17.85;6.15;;;;;;;;;;5054310;28;20048;-86
2023/11/16 12:43:12;;;;;;;26.85;5.88;;;;;;;;;;5054101;28;20021;-86
2023/11/16 12:45:37;;;;;;;13.30;5.20;;;;;;;;;;5052136;28;20017;-86
2023/11/16 12:48:06;;;;;;;17.00;4.57;;;;;;;;;;5044107;28;20067;-86
2023/11/16 12:50:31;;;;;;;12.57;4.82;;;;;;;;;;5054303;28;20017;-86
2023/11/16 12:52:57;;;;;;;13.32;4.53;;;;;;;;;;5054802;28;20020;-85
2023/11/16 12:55:23;;;;;;;13.75;3.85;;;;;;;;;;5053764;28;20381;-86
2023/11/16 12:57:48;;;;;;;10.82;4.07;;;;;;;;;;5053331;28;20017;-85
2023/11/16 13:00:19;;;;;;;15.35;4.35;;;;;;;;;;5086437;28;20044;-86
2023/11/16 13:02:44;;;;;;;13.27;4.38;;;;;;;;;;5053119;28;20532;-87
2023/11/16 13:05:17;;;;;;;11.23;4.40;;;;;;;;;;5053247;28;20203;-86
2023/11/16 13:07:46;;;;;;;11.05;3.90;;;;;;;;;;5053633;28;20560;-85
2023/11/16 13:10:12;;;;;;;19.52;5.18;;;;;;;;;;5052240;28;20399;-85
2023/11/16 13:12:37;;;;;;;12.55;3.80;;;;;;;;;;5052144;28;20484;-85
2023/11/16 13:15:03;;;;;;;11.65;3.90;;;;;;;;;;5051683;28;20052;-85
2023/11/16 13:17:29;;;;;;;9.90;4.85;;;;;;;;;;5084530;28;20025;-85
2023/11/16 13:19:55;;;;;;;12.00;4.15;;;;;;;;;;5079482;28;20029;-85
2023/11/16 13:22:22;;;;;;;19.73;4.82;;;;;;;;;;5052729;28;20031;-85
2023/11/16 13:24:49;;;;;;;18.00;4.15;;;;;;;;;;5051846;28;20029;-85
2023/11/16 13:27:15;;;;;;;13.85;4.18;;;;;;;;;;5051763;28;20033;-85
2023/11/16 13:29:40;;;;;;;9.02;4.13;;;;;;;;;;5053025;28;20093;-85
2023/11/16 13:32:06;;;;;;;9.20;3.72;;;;;;;;;;5051627;28;20025;-86
2023/11/16 13:34:34;;;;;;;14.18;3.40;;;;;;;;;;5051184;28;20016;-85
2023/11/16 13:36:59;;;;;;;9.50;3.60;;;;;;;;;;5051783;28;20071;-85
2023/11/16 13:39:27;;;;;;;14.48;3.05;;;;;;;;;;5051798;28;20029;-85
2023/11/16 13:41:53;;;;;;;8.20;3.03;;;;;;;;;;5052278;28;20111;-85
2023/11/16 13:44:18;;;;;;;8.45;3.35;;;;;;;;;;5050444;28;20033;-85
2023/11/16 13:46:43;;;;;;;11.27;3.25;;;;;;;;;;5050545;28;20029;-85
2023/11/16 13:49:09;;;;;;;6.85;2.60;;;;;;;;;;5050376;28;20019;-85
2023/11/16 13:51:35;;;;;;;16.13;4.93;;;;;;;;;;5052239;28;20029;-83
2023/11/16 13:54:01;;;;;;;13.85;3.17;;;;;;;;;;5044437;28;20488;-85
2023/11/16 13:56:26;;;;;;;7.90;2.60;;;;;;;;;;5051288;28;20017;-85
2023/11/16 13:58:52;;;;;;;11.00;3.35;;;;;;;;;;5050614;28;20023;-85
2023/11/16 14:01:18;;;;;;;7.90;3.15;;;;;;;;;;5051509;28;20092;-85
2023/11/16 14:03:43;;;;;;;12.15;3.25;;;;;;;;;;5050608;28;20020;-85
2023/11/16 14:06:09;;;;;;;10.85;2.92;;;;;;;;;;5036323;28;20021;-85
2023/11/16 14:08:34;;;;;;;8.95;3.50;;;;;;;;;;5051064;28;20029;-85
2023/11/16 14:11:03;;;;;;;10.18;3.60;;;;;;;;;;5061998;28;20020;-85
2023/11/16 14:13:28;;;;;;;11.65;3.00;;;;;;;;;;5053361;28;20025;-84
2023/11/16 14:15:53;;;;;;;8.20;2.83;;;;;;;;;;5050395;28;20027;-85
2023/11/16 14:18:19;;;;;;;7.85;2.80;;;;;;;;;;5050279;28;20032;-84
2023/11/16 14:20:44;;;;;;;9.55;2.80;;;;;;;;;;5050193;28;20028;-85
2023/11/16 14:23:10;;;;;;;6.20;2.90;;;;;;;;;;5052606;28;20013;-85
2023/11/16 14:25:35;;;;;;;5.53;2.50;;;;;;;;;;5050887;28;20013;-85
2023/11/16 14:28:01;;;;;;;7.72;2.58;;;;;;;;;;5049860;28;20017;-85
2023/11/16 14:30:29;;;;;;;6.93;3.10;;;;;;;;;;5051667;28;20016;-85
2023/11/16 14:32:54;;;;;;;6.60;3.33;;;;;;;;;;5052240;28;20024;-85
2023/11/16 14:35:21;;;;;;;8.32;2.70;;;;;;;;;;5045096;28;20021;-85